UAL44 KSFO-LSZH
Flight info
| Callsign | UAL44 |
|---|---|
| Flight time | N/A |
| Altitude | 33000 |
| Route | SNTNA2 ORRCA DCT FMG J94 LLC DCT TWF DCT MOT DCT YRL DCT VIRSO/N0493F350 DCT MCKEE DCT VESMI/M084F350 DCT 59N050W 60N040W 60N030W 59N020W DCT GOMUP/N0481F350 DCT GINGA/N0481F370 DCT MAKUX DCT SOSIM L15 KEPAD L151 TELBA/N0484F350 L151 MID UL612 VEULE DCT TEPRI UN491 POGZI DCT GELTA DCT MANAG DCT PEVIT DCT BLM |
| Aircraft | B77W/H-SDE1E2E3FGHIJ2J3J4J5M1RWXY/LB1D1 |
Departure
| Time | N/A |
|---|---|
| Airport | San Francisco International Airport (KSFO) |
Arrival
| Time | 2026-05-07 06:51 |
|---|---|
| Airport | Zürich Airport (LSZH) |
| Time | Latitude | Longitude | Altitude | Speed | Heading |
|---|---|---|---|---|---|
| 2026-05-07 06:17 | 48.30359 | 4.60106 | 36999 ft | 495 kts | 118° |
| 2026-05-07 06:17 | 48.28754 | 4.64672 | 37002 ft | 495 kts | 118° |
| 2026-05-07 06:18 | 48.25509 | 4.73879 | 37009 ft | 495 kts | 118° |
| 2026-05-07 06:18 | 48.22320 | 4.82892 | 37010 ft | 495 kts | 118° |
| 2026-05-07 06:19 | 48.19086 | 4.92002 | 37004 ft | 495 kts | 118° |
| 2026-05-07 06:19 | 48.15892 | 5.00970 | 37008 ft | 494 kts | 118° |
| 2026-05-07 06:20 | 48.12647 | 5.10053 | 37005 ft | 494 kts | 119° |
| 2026-05-07 06:20 | 48.09742 | 5.19365 | 37011 ft | 495 kts | 110° |
| 2026-05-07 06:21 | 48.07804 | 5.29187 | 37019 ft | 495 kts | 106° |
| 2026-05-07 06:21 | 48.05965 | 5.39125 | 37010 ft | 496 kts | 106° |
| 2026-05-07 06:22 | 48.04088 | 5.49057 | 37010 ft | 497 kts | 106° |
| 2026-05-07 06:22 | 48.01209 | 5.63955 | 37009 ft | 498 kts | 107° |
| 2026-05-07 06:23 | 47.99286 | 5.73809 | 37013 ft | 498 kts | 107° |
| 2026-05-07 06:23 | 47.97342 | 5.83735 | 37019 ft | 498 kts | 107° |
| 2026-05-07 06:24 | 47.95741 | 5.91877 | 37004 ft | 498 kts | 107° |
| 2026-05-07 06:24 | 47.95252 | 5.94355 | 37010 ft | 498 kts | 107° |
| 2026-05-07 06:25 | 47.94763 | 5.96833 | 37008 ft | 498 kts | 107° |
| 2026-05-07 06:25 | 47.94356 | 5.98892 | 37006 ft | 498 kts | 107° |
| 2026-05-07 06:26 | 47.93872 | 6.01336 | 37018 ft | 498 kts | 107° |
| 2026-05-07 06:26 | 47.93301 | 6.04218 | 37016 ft | 498 kts | 107° |
| 2026-05-07 06:27 | 47.92893 | 6.06272 | 37011 ft | 497 kts | 107° |
| 2026-05-07 06:27 | 47.92648 | 6.07508 | 36898 ft | 498 kts | 107° |
| 2026-05-07 06:27 | 47.92401 | 6.08753 | 36531 ft | 504 kts | 107° |
| 2026-05-07 06:28 | 47.92150 | 6.10010 | 36374 ft | 506 kts | 107° |
| 2026-05-07 06:28 | 47.91900 | 6.11267 | 36309 ft | 504 kts | 107° |
| 2026-05-07 06:28 | 47.91649 | 6.12526 | 35971 ft | 507 kts | 107° |
| 2026-05-07 06:28 | 47.91398 | 6.13789 | 35781 ft | 508 kts | 107° |
| 2026-05-07 06:29 | 47.90899 | 6.16289 | 35524 ft | 500 kts | 107° |
| 2026-05-07 06:29 | 47.90649 | 6.17541 | 35149 ft | 506 kts | 107° |
| 2026-05-07 06:29 | 47.90399 | 6.18792 | 35072 ft | 502 kts | 107° |
| 2026-05-07 06:30 | 47.90154 | 6.20019 | 34879 ft | 498 kts | 107° |
| 2026-05-07 06:30 | 47.89905 | 6.21265 | 34502 ft | 503 kts | 107° |
| 2026-05-07 06:30 | 47.89654 | 6.22516 | 34380 ft | 501 kts | 107° |
| 2026-05-07 06:30 | 47.89406 | 6.23758 | 34184 ft | 498 kts | 107° |
| 2026-05-07 06:31 | 47.89157 | 6.24999 | 33775 ft | 502 kts | 107° |
| 2026-05-07 06:31 | 47.88907 | 6.26244 | 33648 ft | 500 kts | 107° |
| 2026-05-07 06:31 | 47.88659 | 6.27482 | 33380 ft | 497 kts | 107° |
| 2026-05-07 06:31 | 47.88410 | 6.28722 | 32981 ft | 501 kts | 107° |
| 2026-05-07 06:32 | 47.88164 | 6.29947 | 32874 ft | 498 kts | 107° |
| 2026-05-07 06:32 | 47.87916 | 6.31178 | 32582 ft | 495 kts | 107° |
| 2026-05-07 06:32 | 47.87667 | 6.32419 | 32227 ft | 499 kts | 106° |
| 2026-05-07 06:32 | 47.87418 | 6.33652 | 32127 ft | 496 kts | 106° |
| 2026-05-07 06:33 | 47.87171 | 6.34877 | 31792 ft | 494 kts | 106° |
| 2026-05-07 06:33 | 47.86923 | 6.36107 | 31499 ft | 494 kts | 106° |
| 2026-05-07 06:33 | 47.86678 | 6.37324 | 31366 ft | 487 kts | 106° |
| 2026-05-07 06:33 | 47.86435 | 6.38526 | 30982 ft | 485 kts | 106° |
| 2026-05-07 06:34 | 47.85926 | 6.41045 | 30862 ft | 470 kts | 106° |
| 2026-05-07 06:34 | 47.84995 | 6.45638 | 30050 ft | 459 kts | 105° |
| 2026-05-07 06:34 | 47.84086 | 6.50122 | 29357 ft | 452 kts | 105° |
| 2026-05-07 06:34 | 47.83169 | 6.54637 | 28695 ft | 458 kts | 106° |
| 2026-05-07 06:35 | 47.81482 | 6.62923 | 27518 ft | 467 kts | 106° |
| 2026-05-07 06:35 | 47.79636 | 6.71934 | 26217 ft | 460 kts | 106° |
| 2026-05-07 06:35 | 47.77983 | 6.79972 | 25094 ft | 454 kts | 106° |
| 2026-05-07 06:35 | 47.77059 | 6.84448 | 24485 ft | 451 kts | 106° |
| 2026-05-07 06:36 | 47.76141 | 6.88885 | 23882 ft | 448 kts | 106° |
| 2026-05-07 06:36 | 47.75226 | 6.93302 | 23204 ft | 446 kts | 106° |
| 2026-05-07 06:36 | 47.74313 | 6.97700 | 22524 ft | 443 kts | 106° |
| 2026-05-07 06:36 | 47.73438 | 7.01901 | 21923 ft | 439 kts | 106° |
| 2026-05-07 06:37 | 47.72536 | 7.06226 | 21307 ft | 436 kts | 106° |
| 2026-05-07 06:37 | 47.71641 | 7.10512 | 20706 ft | 433 kts | 106° |
| 2026-05-07 06:37 | 47.70751 | 7.14767 | 20096 ft | 430 kts | 106° |
| 2026-05-07 06:37 | 47.69863 | 7.18997 | 19508 ft | 427 kts | 106° |
| 2026-05-07 06:38 | 47.68990 | 7.23146 | 18928 ft | 425 kts | 107° |
| 2026-05-07 06:38 | 47.68109 | 7.27319 | 18337 ft | 423 kts | 106° |
| 2026-05-07 06:38 | 47.67230 | 7.31479 | 17663 ft | 421 kts | 107° |
| 2026-05-07 06:38 | 47.66353 | 7.35624 | 17031 ft | 419 kts | 107° |
| 2026-05-07 06:39 | 47.65484 | 7.39728 | 16447 ft | 416 kts | 107° |
| 2026-05-07 06:39 | 47.64617 | 7.43814 | 15832 ft | 414 kts | 107° |
| 2026-05-07 06:39 | 47.63753 | 7.47877 | 15257 ft | 411 kts | 107° |
| 2026-05-07 06:39 | 47.62881 | 7.51899 | 14668 ft | 409 kts | 109° |
| 2026-05-07 06:40 | 47.61959 | 7.55865 | 14096 ft | 407 kts | 110° |
| 2026-05-07 06:40 | 47.61021 | 7.59793 | 13481 ft | 405 kts | 110° |
| 2026-05-07 06:40 | 47.60081 | 7.63720 | 12927 ft | 402 kts | 110° |
| 2026-05-07 06:40 | 47.59161 | 7.67601 | 12329 ft | 399 kts | 110° |
| 2026-05-07 06:41 | 47.58259 | 7.71421 | 12156 ft | 386 kts | 110° |
| 2026-05-07 06:41 | 47.57383 | 7.75127 | 11829 ft | 378 kts | 110° |
| 2026-05-07 06:41 | 47.56531 | 7.78739 | 11387 ft | 374 kts | 110° |
| 2026-05-07 06:41 | 47.55678 | 7.82357 | 10969 ft | 370 kts | 110° |
| 2026-05-07 06:42 | 47.54832 | 7.85944 | 10537 ft | 367 kts | 110° |
| 2026-05-07 06:42 | 47.53992 | 7.89496 | 10145 ft | 364 kts | 110° |
| 2026-05-07 06:42 | 47.53179 | 7.92936 | 9795 ft | 340 kts | 111° |
| 2026-05-07 06:42 | 47.52428 | 7.96108 | 9497 ft | 314 kts | 111° |
| 2026-05-07 06:43 | 47.51727 | 7.99061 | 9094 ft | 296 kts | 111° |
| 2026-05-07 06:43 | 47.51089 | 8.01752 | 8692 ft | 280 kts | 109° |
| 2026-05-07 06:43 | 47.50859 | 8.04581 | 8360 ft | 282 kts | 82° |
| 2026-05-07 06:43 | 47.51445 | 8.07302 | 8088 ft | 284 kts | 64° |
| 2026-05-07 06:44 | 47.52270 | 8.09981 | 7765 ft | 290 kts | 64° |
| 2026-05-07 06:44 | 47.53111 | 8.12704 | 7438 ft | 291 kts | 64° |
| 2026-05-07 06:44 | 47.53948 | 8.15420 | 7098 ft | 290 kts | 64° |
| 2026-05-07 06:44 | 47.54781 | 8.18141 | 6787 ft | 288 kts | 64° |
| 2026-05-07 06:45 | 47.55587 | 8.20786 | 6620 ft | 278 kts | 64° |
| 2026-05-07 06:45 | 47.56369 | 8.23360 | 6454 ft | 269 kts | 64° |
| 2026-05-07 06:45 | 47.57113 | 8.25826 | 6360 ft | 254 kts | 64° |
| 2026-05-07 06:45 | 47.57803 | 8.28115 | 6186 ft | 233 kts | 64° |
| 2026-05-07 06:46 | 47.58436 | 8.30215 | 5953 ft | 215 kts | 64° |
| 2026-05-07 06:46 | 47.59033 | 8.32201 | 5661 ft | 206 kts | 64° |
| 2026-05-07 06:46 | 47.59605 | 8.34101 | 5407 ft | 199 kts | 64° |
| 2026-05-07 06:46 | 47.60039 | 8.36012 | 4996 ft | 196 kts | 87° |
| 2026-05-07 06:47 | 47.59653 | 8.37888 | 4463 ft | 191 kts | 134° |
| 2026-05-07 06:47 | 47.58716 | 8.39179 | 4208 ft | 182 kts | 142° |
| 2026-05-07 06:47 | 47.57756 | 8.40496 | 3980 ft | 193 kts | 141° |
| 2026-05-07 06:47 | 47.56777 | 8.41849 | 3692 ft | 190 kts | 140° |
| 2026-05-07 06:48 | 47.55825 | 8.43169 | 3441 ft | 186 kts | 140° |
| 2026-05-07 06:48 | 47.54881 | 8.44467 | 3181 ft | 184 kts | 140° |
| 2026-05-07 06:48 | 47.53957 | 8.45742 | 3118 ft | 182 kts | 141° |
| 2026-05-07 06:48 | 47.53028 | 8.47030 | 3056 ft | 185 kts | 141° |
| 2026-05-07 06:49 | 47.52068 | 8.48334 | 2618 ft | 185 kts | 141° |
| 2026-05-07 06:49 | 47.51149 | 8.49579 | 2166 ft | 172 kts | 139° |
| 2026-05-07 06:49 | 47.50343 | 8.50700 | 1894 ft | 147 kts | 140° |
| 2026-05-07 06:49 | 47.49604 | 8.51701 | 1801 ft | 142 kts | 139° |
| 2026-05-07 06:50 | 47.48869 | 8.52703 | 1629 ft | 147 kts | 138° |
| 2026-05-07 06:50 | 47.48125 | 8.53724 | 1435 ft | 146 kts | 138° |
| 2026-05-07 06:50 | 47.47438 | 8.54662 | 1402 ft | 118 kts | 137° |
| 2026-05-07 06:50 | 47.46949 | 8.55327 | 1403 ft | 73 kts | 137° |
| 2026-05-07 06:51 | 47.46629 | 8.55666 | 1409 ft | 36 kts | 164° |
| 2026-05-07 06:51 | 47.46425 | 8.55737 | 1407 ft | 30 kts | 167° |
| 2026-05-07 06:51 | 47.46290 | 8.55883 | 1414 ft | 18 kts | 141° |
| 2026-05-07 06:51 | 47.46230 | 8.55849 | 1412 ft | 11 kts | 264° |
| 2026-05-07 06:52 | 47.46245 | 8.55642 | 1404 ft | 22 kts | 276° |
| 2026-05-07 06:52 | 47.46259 | 8.55446 | 1404 ft | 13 kts | 273° |
| 2026-05-07 06:52 | 47.46222 | 8.55403 | 1406 ft | 7 kts | 193° |
| 2026-05-07 06:52 | 47.46191 | 8.55397 | 1407 ft | 0 kts | 185° |